createdAt,value
2023-02-14T00:00:01.926Z,2.39
2023-02-14T00:04:04.010Z,2.44
2023-02-14T00:07:59.109Z,2.45
2023-02-14T00:11:40.340Z,2.44
2023-02-14T00:15:21.542Z,2.40
2023-02-14T00:19:03.203Z,2.38
2023-02-14T00:22:25.838Z,2.38
2023-02-14T00:26:22.329Z,2.39
2023-02-14T00:30:04.829Z,2.38
2023-02-14T00:33:28.976Z,2.40
2023-02-14T00:37:26.560Z,2.43
2023-02-14T00:40:49.313Z,2.43
2023-02-14T00:44:28.779Z,2.41
2023-02-14T00:48:23.679Z,2.39
2023-02-14T00:51:45.907Z,2.35
2023-02-14T00:55:48.764Z,2.34
2023-02-14T00:59:11.593Z,2.33
2023-02-14T01:03:07.687Z,2.35
2023-02-14T01:06:51.050Z,2.38
2023-02-14T01:10:15.568Z,2.38
2023-02-14T01:13:56.411Z,2.40
2023-02-14T01:17:30.877Z,2.38
2023-02-14T01:21:33.319Z,2.38
2023-02-14T01:25:14.536Z,2.35
2023-02-14T01:28:37.848Z,2.31
2023-02-14T01:32:14.354Z,2.31
2023-02-14T01:35:52.321Z,2.28
2023-02-14T01:39:31.286Z,2.26
2023-02-14T01:43:31.800Z,2.28
2023-02-14T01:47:23.950Z,2.30
2023-02-14T01:50:50.319Z,2.32
2023-02-14T01:54:27.821Z,2.29
2023-02-14T01:58:27.730Z,2.27
2023-02-14T02:01:55.125Z,2.25
2023-02-14T02:05:27.887Z,2.25
2023-02-14T02:09:34.998Z,2.23
2023-02-14T02:13:18.816Z,2.22
2023-02-14T02:17:24.774Z,2.25
2023-02-14T02:20:53.065Z,2.25
2023-02-14T02:25:02.198Z,2.25
2023-02-14T02:29:14.567Z,2.23
2023-02-14T02:32:57.100Z,2.21
2023-02-14T02:36:45.590Z,2.20
2023-02-14T02:40:44.691Z,2.23
2023-02-14T02:45:06.062Z,2.24
2023-02-14T02:48:45.030Z,2.25
2023-02-14T02:53:05.451Z,2.22
2023-02-14T02:56:47.431Z,2.20
2023-02-14T03:00:29.982Z,2.19
2023-02-14T03:04:16.149Z,2.21
2023-02-14T03:07:58.080Z,2.20
2023-02-14T03:11:55.988Z,2.23
2023-02-14T03:15:38.550Z,2.23
2023-02-14T03:20:14.647Z,2.25
2023-02-14T03:24:02.558Z,2.30
2023-02-14T03:27:59.105Z,2.33
2023-02-14T03:31:32.119Z,2.30
2023-02-14T03:35:01.768Z,2.27
2023-02-14T03:38:45.645Z,2.25
2023-02-14T03:42:26.145Z,2.19
2023-02-14T03:45:58.885Z,2.17
2023-02-14T03:49:33.543Z,2.19
2023-02-14T03:53:09.987Z,2.24
2023-02-14T03:56:53.144Z,2.28
2023-02-14T04:00:45.470Z,2.29
2023-02-14T04:04:08.997Z,2.30
2023-02-14T04:08:04.126Z,2.32
2023-02-14T04:11:27.232Z,2.31
2023-02-14T04:15:23.129Z,2.25
2023-02-14T04:19:22.530Z,2.22
2023-02-14T04:23:03.812Z,2.21
2023-02-14T04:26:25.690Z,2.22
2023-02-14T04:30:04.934Z,2.27
2023-02-14T04:33:41.135Z,2.28
2023-02-14T04:37:21.999Z,2.28
2023-02-14T04:40:57.966Z,2.24
2023-02-14T04:44:34.196Z,2.19
2023-02-14T04:48:12.091Z,2.16
2023-02-14T04:52:10.657Z,2.13
2023-02-14T04:55:35.070Z,2.14
2023-02-14T04:59:12.270Z,2.17
2023-02-14T05:02:51.347Z,2.21
2023-02-14T05:06:30.854Z,2.24
2023-02-14T05:10:24.256Z,2.25
2023-02-14T05:13:46.467Z,2.24
2023-02-14T05:17:24.583Z,2.20
2023-02-14T05:21:21.057Z,2.19
2023-02-14T05:25:02.407Z,2.20
2023-02-14T05:28:43.660Z,2.21
2023-02-14T05:32:05.941Z,2.23
2023-02-14T05:35:46.634Z,2.21
2023-02-14T05:39:21.132Z,2.22
2023-02-14T05:43:00.470Z,2.20
2023-02-14T05:46:36.396Z,2.16
2023-02-14T05:50:33.181Z,2.14
2023-02-14T05:54:14.658Z,2.17
2023-02-14T05:57:58.616Z,2.22
2023-02-14T06:01:23.492Z,2.27
2023-02-14T06:04:58.994Z,2.30
2023-02-14T06:08:55.413Z,2.30
2023-02-14T06:12:17.441Z,2.28
2023-02-14T06:15:55.050Z,2.25
2023-02-14T06:19:32.726Z,2.23
2023-02-14T06:23:11.188Z,2.21
2023-02-14T06:26:48.031Z,2.22
2023-02-14T06:30:46.286Z,2.27
2023-02-14T06:34:27.407Z,2.31
2023-02-14T06:37:49.539Z,2.31
2023-02-14T06:41:27.150Z,2.32
2023-02-14T06:45:24.688Z,2.29
2023-02-14T06:49:05.894Z,2.25
2023-02-14T06:52:46.870Z,2.23
2023-02-14T06:56:30.657Z,2.25
2023-02-14T06:59:52.379Z,2.31
2023-02-14T07:03:48.951Z,2.36
2023-02-14T07:07:16.223Z,2.44
2023-02-14T07:11:07.721Z,2.47
2023-02-14T07:14:48.946Z,2.48
2023-02-14T07:18:12.466Z,2.41
2023-02-14T07:22:08.748Z,2.39
2023-02-14T07:25:31.062Z,2.44
2023-02-14T07:29:08.639Z,2.48
2023-02-14T07:33:05.098Z,2.47
2023-02-14T07:36:31.553Z,2.51
2023-02-14T07:40:24.591Z,2.51
2023-02-14T07:44:05.749Z,2.53
2023-02-14T07:47:29.339Z,2.56
2023-02-14T07:51:24.371Z,2.63
2023-02-14T07:55:06.835Z,2.72
2023-02-14T07:58:29.178Z,2.78
2023-02-14T08:02:11.328Z,2.77
2023-02-14T08:05:57.284Z,2.75
2023-02-14T08:09:25.780Z,2.70
2023-02-14T08:13:19.813Z,2.69
2023-02-14T08:17:03.730Z,2.75
2023-02-14T08:20:50.877Z,2.77
2023-02-14T08:24:34.340Z,2.82
2023-02-14T08:27:57.682Z,2.82
2023-02-14T08:31:38.491Z,2.81
2023-02-14T08:35:12.043Z,2.82
2023-02-14T08:39:12.525Z,2.87
2023-02-14T08:42:36.442Z,2.89
2023-02-14T08:46:16.865Z,2.94
2023-02-14T08:50:14.417Z,2.99
2023-02-14T08:53:55.631Z,3.06
2023-02-14T08:57:18.662Z,3.05
2023-02-14T09:00:55.903Z,3.04
2023-02-14T09:04:35.449Z,3.07
2023-02-14T09:08:12.985Z,3.08
2023-02-14T09:12:09.534Z,3.11
2023-02-14T09:15:50.615Z,3.12
2023-02-14T09:19:12.903Z,3.03
2023-02-14T09:23:09.745Z,3.03
2023-02-14T09:26:38.891Z,3.05
2023-02-14T09:30:28.824Z,3.08
2023-02-14T09:34:30.560Z,3.10
2023-02-14T09:38:12.574Z,3.16
2023-02-14T09:41:58.169Z,3.22
2023-02-14T09:45:43.068Z,3.31
2023-02-14T09:49:34.996Z,3.43
2023-02-14T09:53:26.654Z,3.40
2023-02-14T09:57:11.762Z,3.37
2023-02-14T10:01:10.527Z,3.37
2023-02-14T10:04:49.907Z,3.42
2023-02-14T10:08:47.484Z,3.49
2023-02-14T10:12:47.696Z,3.46
2023-02-14T10:16:33.576Z,3.44
2023-02-14T10:20:27.451Z,3.46
2023-02-14T10:23:56.361Z,3.48
2023-02-14T10:27:48.973Z,3.57
2023-02-14T10:31:20.496Z,3.65
2023-02-14T10:34:51.784Z,3.70
2023-02-14T10:38:41.550Z,3.77
2023-02-14T10:42:25.948Z,3.80
2023-02-14T10:46:40.485Z,3.80
2023-02-14T10:50:44.890Z,3.89
2023-02-14T10:54:25.845Z,3.95
2023-02-14T10:57:53.826Z,3.96
2023-02-14T11:01:26.358Z,3.98
2023-02-14T11:05:05.077Z,4.00
2023-02-14T11:08:43.288Z,3.95
2023-02-14T11:12:37.994Z,3.93
2023-02-14T11:16:04.190Z,3.95
2023-02-14T11:19:38.959Z,4.07
2023-02-14T11:23:21.034Z,4.04
2023-02-14T11:27:05.273Z,4.00
2023-02-14T11:30:51.896Z,3.96
2023-02-14T11:34:39.367Z,3.93
2023-02-14T11:38:33.649Z,4.01
2023-02-14T11:42:01.328Z,4.12
2023-02-14T11:45:40.155Z,4.18
2023-02-14T11:49:55.764Z,4.17
2023-02-14T11:53:51.530Z,4.24
2023-02-14T11:57:18.846Z,4.24
2023-02-14T12:01:25.919Z,4.26
2023-02-14T12:04:52.953Z,4.29
2023-02-14T12:08:44.911Z,4.33
2023-02-14T12:12:27.605Z,4.42
2023-02-14T12:15:54.650Z,4.43
2023-02-14T12:19:54.007Z,4.39
2023-02-14T12:23:22.538Z,4.43
2023-02-14T12:27:29.082Z,4.41
2023-02-14T12:30:52.612Z,4.42
2023-02-14T12:34:29.848Z,4.40
2023-02-14T12:38:35.836Z,4.37
2023-02-14T12:42:25.558Z,4.31
2023-02-14T12:46:43.857Z,4.27
2023-02-14T12:50:24.851Z,4.24
2023-02-14T12:54:23.991Z,4.27
2023-02-14T12:58:01.271Z,4.35
2023-02-14T13:01:38.498Z,4.34
2023-02-14T13:05:37.256Z,4.33
2023-02-14T13:09:28.769Z,4.41
2023-02-14T13:13:29.958Z,4.46
2023-02-14T13:17:06.445Z,4.48
2023-02-14T13:20:32.715Z,4.41
2023-02-14T13:24:19.877Z,4.39
2023-02-14T13:27:45.224Z,4.39
2023-02-14T13:31:41.942Z,4.41
2023-02-14T13:35:06.888Z,4.44
2023-02-14T13:38:49.025Z,4.51
2023-02-14T13:42:47.493Z,4.56
2023-02-14T13:46:31.614Z,4.55
2023-02-14T13:50:20.878Z,4.55
2023-02-14T13:54:19.174Z,4.53
2023-02-14T13:58:15.678Z,4.46
2023-02-14T14:02:27.614Z,4.49
2023-02-14T14:06:01.493Z,4.50
2023-02-14T14:09:41.750Z,4.46
2023-02-14T14:13:07.216Z,4.48
2023-02-14T14:16:58.527Z,4.38
2023-02-14T14:20:23.182Z,4.33
2023-02-14T14:24:33.354Z,4.25
2023-02-14T14:28:21.369Z,4.21
2023-02-14T14:31:45.154Z,4.19
2023-02-14T14:35:52.256Z,4.21
2023-02-14T14:39:40.750Z,4.22
2023-02-14T14:43:13.284Z,4.23
2023-02-14T14:46:43.353Z,4.24
2023-02-14T14:50:27.549Z,4.23
2023-02-14T14:54:03.426Z,4.23
2023-02-14T14:57:39.895Z,4.21
2023-02-14T15:01:30.888Z,4.18
2023-02-14T15:04:55.727Z,4.17
2023-02-14T15:08:34.430Z,4.17
2023-02-14T15:12:29.885Z,4.06
2023-02-14T15:16:29.347Z,3.95
2023-02-14T15:20:04.664Z,3.88
2023-02-14T15:23:30.288Z,3.88
2023-02-14T15:27:27.600Z,3.93
2023-02-14T15:31:08.776Z,3.97
2023-02-14T15:34:53.242Z,3.97
2023-02-14T15:38:18.111Z,3.92
2023-02-14T15:41:55.990Z,3.88
2023-02-14T15:45:31.334Z,3.80
2023-02-14T15:49:11.782Z,3.74
2023-02-14T15:52:48.171Z,3.72
2023-02-14T15:56:31.612Z,3.64
2023-02-14T16:00:06.593Z,3.52
2023-02-14T16:03:48.202Z,3.54
2023-02-14T16:07:28.454Z,3.56
2023-02-14T16:11:15.139Z,3.57
2023-02-14T16:14:44.200Z,3.58
2023-02-14T16:18:46.813Z,3.59
2023-02-14T16:22:11.360Z,3.57
2023-02-14T16:26:07.315Z,3.51
2023-02-14T16:29:29.148Z,3.50
2023-02-14T16:33:21.212Z,3.53
2023-02-14T16:36:48.789Z,3.53
2023-02-14T16:40:44.621Z,3.50
2023-02-14T16:44:07.027Z,3.50
2023-02-14T16:47:48.361Z,3.51
2023-02-14T16:51:43.929Z,3.50
2023-02-14T16:55:07.045Z,3.48
2023-02-14T16:58:46.223Z,3.42
2023-02-14T17:02:22.522Z,3.44
2023-02-14T17:06:26.934Z,3.48
2023-02-14T17:09:56.099Z,3.51
2023-02-14T17:13:27.765Z,3.50
2023-02-14T17:17:04.280Z,3.50
2023-02-14T17:21:01.232Z,3.54
2023-02-14T17:24:29.801Z,3.52
2023-02-14T17:28:03.633Z,3.47
2023-02-14T17:31:59.894Z,3.42
2023-02-14T17:35:40.701Z,3.43
2023-02-14T17:39:03.361Z,3.41
2023-02-14T17:42:40.595Z,3.35
2023-02-14T17:46:21.033Z,3.28
2023-02-14T17:49:55.398Z,3.24
2023-02-14T17:53:34.188Z,3.20
2023-02-14T17:57:12.643Z,3.15
2023-02-14T18:01:11.350Z,3.18
2023-02-14T18:04:36.368Z,3.23
2023-02-14T18:08:13.777Z,3.21
2023-02-14T18:11:50.529Z,3.28
2023-02-14T18:15:46.647Z,3.24
2023-02-14T18:19:28.195Z,3.21
2023-02-14T18:22:50.365Z,3.13
2023-02-14T18:26:27.967Z,3.11
2023-02-14T18:30:06.707Z,3.17
2023-02-14T18:34:04.542Z,3.22
2023-02-14T18:37:26.769Z,3.14
2023-02-14T18:41:06.301Z,3.14
2023-02-14T18:45:01.377Z,3.17
2023-02-14T18:48:45.108Z,3.13
2023-02-14T18:52:07.285Z,3.09
2023-02-14T18:56:10.430Z,3.10
2023-02-14T18:59:32.882Z,3.10
2023-02-14T19:03:15.037Z,3.10
2023-02-14T19:07:07.296Z,3.17
2023-02-14T19:10:37.596Z,3.10
2023-02-14T19:14:10.355Z,3.00
2023-02-14T19:17:45.058Z,3.03
2023-02-14T19:21:25.029Z,3.05
2023-02-14T19:25:22.481Z,3.11
2023-02-14T19:28:47.405Z,3.12
2023-02-14T19:32:22.719Z,3.10
2023-02-14T19:36:02.005Z,3.01
2023-02-14T19:39:38.833Z,2.94
2023-02-14T19:43:38.606Z,2.95
2023-02-14T19:47:04.220Z,2.95
2023-02-14T19:50:39.348Z,2.97
2023-02-14T19:54:39.563Z,2.99
2023-02-14T19:58:20.781Z,3.02
2023-02-14T20:01:54.548Z,3.00
2023-02-14T20:05:22.904Z,3.00
2023-02-14T20:08:59.940Z,2.99
2023-02-14T20:12:56.241Z,2.95
2023-02-14T20:16:25.904Z,2.93
2023-02-14T20:20:01.946Z,2.88
2023-02-14T20:24:04.804Z,2.89
2023-02-14T20:27:46.428Z,2.93
2023-02-14T20:31:31.026Z,2.87
2023-02-14T20:34:54.316Z,2.75
2023-02-14T20:38:33.629Z,2.73
2023-02-14T20:42:28.317Z,2.80
2023-02-14T20:45:50.812Z,2.85
2023-02-14T20:49:30.768Z,2.82
2023-02-14T20:53:07.843Z,2.85
2023-02-14T20:56:43.720Z,2.87
2023-02-14T21:00:25.664Z,2.81
2023-02-14T21:03:58.925Z,2.80
2023-02-14T21:07:38.347Z,2.78
2023-02-14T21:11:16.629Z,2.84
2023-02-14T21:15:11.264Z,2.77
2023-02-14T21:18:58.134Z,2.70
2023-02-14T21:22:20.374Z,2.63
2023-02-14T21:25:58.170Z,2.50
2023-02-14T21:29:35.609Z,2.50
2023-02-14T21:33:15.477Z,2.61
2023-02-14T21:37:10.461Z,2.77
2023-02-14T21:40:32.639Z,2.87
2023-02-14T21:44:30.199Z,2.78
2023-02-14T21:48:31.227Z,2.53
2023-02-14T21:51:53.902Z,2.39
2023-02-14T21:55:33.276Z,2.32
2023-02-14T21:59:14.308Z,2.37
2023-02-14T22:03:05.515Z,2.47
2023-02-14T22:06:52.274Z,2.36
2023-02-14T22:10:40.497Z,2.27
2023-02-14T22:18:07.291Z,2.32
2023-02-14T22:25:33.349Z,2.20
2023-02-14T22:36:37.374Z,2.02
2023-02-14T22:40:24.647Z,2.03
2023-02-14T22:47:49.649Z,2.00
2023-02-14T23:02:30.152Z,2.10
2023-02-14T23:06:17.792Z,2.10
2023-02-14T23:10:09.027Z,2.09
2023-02-14T23:14:17.857Z,2.05
2023-02-14T23:18:24.527Z,2.14
2023-02-14T23:25:49.397Z,2.30
2023-02-14T23:29:42.404Z,2.15
2023-02-14T23:36:46.041Z,2.23
2023-02-14T23:41:01.593Z,2.35
2023-02-14T23:44:44.846Z,2.28
2023-02-14T23:48:28.261Z,2.19
2023-02-14T23:52:11.539Z,2.19
2023-02-14T23:55:52.537Z,2.23
2023-02-14T23:59:39.411Z,2.26
